createdAt,value
2022-10-12T00:00:50.158Z,99.90
2022-10-12T00:03:18.188Z,99.90
2022-10-12T00:05:46.223Z,99.90
2022-10-12T00:08:14.405Z,99.90
2022-10-12T00:10:45.545Z,99.90
2022-10-12T00:13:13.514Z,99.90
2022-10-12T00:15:43.148Z,99.90
2022-10-12T00:18:11.065Z,99.90
2022-10-12T00:20:39.077Z,99.90
2022-10-12T00:23:08.004Z,99.90
2022-10-12T00:25:37.676Z,99.90
2022-10-12T00:28:06.170Z,99.90
2022-10-12T00:30:34.457Z,99.90
2022-10-12T00:33:03.707Z,99.90
2022-10-12T00:35:31.718Z,99.90
2022-10-12T00:37:59.688Z,99.90
2022-10-12T00:40:27.702Z,99.90
2022-10-12T00:42:55.610Z,99.90
2022-10-12T00:45:26.264Z,99.90
2022-10-12T00:47:58.216Z,99.90
2022-10-12T00:50:30.496Z,99.90
2022-10-12T00:53:04.657Z,99.90
2022-10-12T00:55:36.830Z,99.90
2022-10-12T00:58:06.279Z,99.90
2022-10-12T01:00:34.402Z,99.90
2022-10-12T01:03:02.722Z,99.90
2022-10-12T01:05:32.110Z,99.90
2022-10-12T01:08:00.656Z,99.90
2022-10-12T01:10:28.725Z,99.90
2022-10-12T01:12:56.832Z,99.90
2022-10-12T01:15:32.338Z,99.90
2022-10-12T01:18:07.505Z,99.90
2022-10-12T01:21:00.418Z,99.90
2022-10-12T01:23:50.688Z,99.90
2022-10-12T01:26:47.445Z,99.90
2022-10-12T01:29:31.492Z,99.90
2022-10-12T01:32:07.758Z,99.90
2022-10-12T01:34:43.829Z,99.90
2022-10-12T01:37:17.858Z,99.90
2022-10-12T01:39:51.237Z,99.90
2022-10-12T01:42:24.548Z,99.90
2022-10-12T01:44:52.492Z,99.90
2022-10-12T01:47:22.217Z,99.90
2022-10-12T01:49:50.256Z,99.90
2022-10-12T01:52:29.523Z,99.90
2022-10-12T01:55:17.439Z,99.90
2022-10-12T01:57:56.272Z,99.90
2022-10-12T02:00:26.617Z,99.90
2022-10-12T02:03:06.101Z,99.90
2022-10-12T02:05:37.692Z,99.90
2022-10-12T02:08:12.950Z,99.90
2022-10-12T02:10:45.984Z,99.90
2022-10-12T02:13:15.974Z,99.90
2022-10-12T02:15:45.813Z,99.90
2022-10-12T02:18:19.090Z,99.90
2022-10-12T02:20:48.755Z,99.90
2022-10-12T02:23:18.417Z,99.90
2022-10-12T02:25:48.157Z,99.90
2022-10-12T02:28:19.610Z,99.90
2022-10-12T02:30:53.514Z,99.90
2022-10-12T02:33:27.092Z,99.90
2022-10-12T02:36:01.466Z,99.90
2022-10-12T02:38:33.891Z,99.90
2022-10-12T02:41:06.609Z,99.90
2022-10-12T02:43:39.490Z,99.90
2022-10-12T02:46:09.326Z,99.90
2022-10-12T02:48:41.243Z,99.90
2022-10-12T02:51:11.321Z,99.90
2022-10-12T02:53:40.133Z,99.90
2022-10-12T02:56:11.914Z,99.90
2022-10-12T02:58:40.492Z,99.90
2022-10-12T03:01:08.753Z,99.90
2022-10-12T03:03:38.082Z,99.90
2022-10-12T03:06:06.350Z,99.90
2022-10-12T03:08:34.319Z,99.90
2022-10-12T03:11:03.575Z,99.90
2022-10-12T03:13:31.771Z,99.90
2022-10-12T03:16:03.320Z,99.90
2022-10-12T03:18:31.456Z,99.90
2022-10-12T03:21:01.128Z,99.90
2022-10-12T03:23:29.146Z,99.90
2022-10-12T03:25:57.267Z,99.90
2022-10-12T03:28:25.392Z,99.90
2022-10-12T03:30:53.410Z,99.90
2022-10-12T03:33:21.390Z,99.90
2022-10-12T03:35:49.665Z,99.90
2022-10-12T03:38:19.915Z,99.90
2022-10-12T03:40:48.269Z,99.90
2022-10-12T03:43:17.161Z,99.90
2022-10-12T03:45:45.169Z,99.90
2022-10-12T03:48:13.351Z,99.90
2022-10-12T03:50:41.474Z,99.90
2022-10-12T03:53:09.483Z,99.90
2022-10-12T03:55:39.049Z,99.90
2022-10-12T03:58:06.999Z,99.90
2022-10-12T04:00:35.110Z,99.90
2022-10-12T04:03:03.148Z,99.90
2022-10-12T04:05:31.959Z,99.90
2022-10-12T04:08:00.379Z,99.90
2022-10-12T04:10:28.385Z,99.90
2022-10-12T04:12:57.823Z,99.90
2022-10-12T04:15:25.796Z,99.90
2022-10-12T04:17:54.418Z,99.90
2022-10-12T04:20:22.408Z,99.90
2022-10-12T04:22:50.438Z,99.90
2022-10-12T04:25:18.501Z,99.90
2022-10-12T04:27:46.472Z,99.90
2022-10-12T04:30:16.102Z,99.90
2022-10-12T04:32:46.487Z,99.90
2022-10-12T04:35:14.460Z,99.90
2022-10-12T04:37:42.463Z,99.90
2022-10-12T04:40:11.214Z,99.90
2022-10-12T04:42:41.483Z,99.90
2022-10-12T04:45:10.396Z,99.90
2022-10-12T04:47:40.011Z,99.90
2022-10-12T04:50:09.145Z,99.90
2022-10-12T04:52:37.109Z,99.90
2022-10-12T04:55:05.674Z,99.90
2022-10-12T04:57:35.972Z,99.90
2022-10-12T05:00:04.651Z,99.90
2022-10-12T05:02:32.647Z,99.90
2022-10-12T05:05:01.959Z,99.90
2022-10-12T05:07:29.941Z,99.90
2022-10-12T05:09:57.923Z,99.90
2022-10-12T05:12:25.927Z,99.90
2022-10-12T05:14:53.902Z,99.90
2022-10-12T05:17:21.803Z,99.90
2022-10-12T05:19:52.688Z,99.90
2022-10-12T05:22:21.977Z,99.90
2022-10-12T05:24:53.652Z,99.90
2022-10-12T05:27:22.022Z,99.90
2022-10-12T05:29:50.097Z,99.90
2022-10-12T05:32:18.171Z,99.90
2022-10-12T05:34:46.180Z,99.90
2022-10-12T05:37:14.171Z,99.90
2022-10-12T05:39:43.557Z,99.90
2022-10-12T05:42:11.464Z,99.90
2022-10-12T05:44:41.468Z,99.90
2022-10-12T05:47:09.453Z,99.90
2022-10-12T05:49:37.506Z,99.90
2022-10-12T05:52:05.691Z,99.90
2022-10-12T05:54:33.673Z,99.90
2022-10-12T05:57:03.335Z,99.90
2022-10-12T05:59:31.306Z,99.90
2022-10-12T06:01:59.258Z,99.90
2022-10-12T06:04:27.373Z,99.90
2022-10-12T06:06:55.284Z,99.90
2022-10-12T06:09:23.422Z,99.90
2022-10-12T06:11:51.393Z,99.90
2022-10-12T06:14:20.703Z,99.90
2022-10-12T06:16:51.103Z,99.90
2022-10-12T06:19:24.682Z,99.90
2022-10-12T06:21:52.754Z,99.90
2022-10-12T06:24:20.670Z,99.90
2022-10-12T06:26:48.652Z,99.90
2022-10-12T06:29:17.496Z,99.90
2022-10-12T06:31:51.443Z,99.90
2022-10-12T06:34:20.021Z,99.90
2022-10-12T06:36:48.056Z,99.90
2022-10-12T06:39:17.289Z,99.90
2022-10-12T06:41:45.329Z,99.90
2022-10-12T06:44:13.522Z,99.90
2022-10-12T06:46:41.497Z,99.90
2022-10-12T06:49:11.489Z,99.90
2022-10-12T06:51:39.456Z,99.90
2022-10-12T06:54:07.448Z,99.90
2022-10-12T06:56:35.636Z,99.90
2022-10-12T06:59:03.552Z,99.90
2022-10-12T07:01:31.679Z,1.00
2022-10-12T07:04:00.925Z,99.90
2022-10-12T07:06:30.694Z,1.00
2022-10-12T07:09:01.132Z,99.90
2022-10-12T07:11:29.408Z,99.90
2022-10-12T07:13:58.747Z,99.90
2022-10-12T07:16:27.039Z,99.90
2022-10-12T07:18:55.032Z,99.90
2022-10-12T07:21:23.107Z,99.90
2022-10-12T07:23:53.215Z,99.90
2022-10-12T07:26:21.371Z,99.90
2022-10-12T07:28:49.398Z,99.90
2022-10-12T07:31:17.403Z,99.90
2022-10-12T07:33:45.395Z,99.90
2022-10-12T07:36:15.656Z,1.00
2022-10-12T07:38:48.711Z,1.00
2022-10-12T07:41:18.725Z,99.90
2022-10-12T07:43:46.812Z,99.90
2022-10-12T07:46:14.984Z,1.00
2022-10-12T07:48:48.892Z,99.90
2022-10-12T07:51:19.793Z,33.60
2022-10-12T07:53:48.039Z,99.90
2022-10-12T07:56:17.919Z,99.90
2022-10-12T07:58:50.097Z,1.00
2022-10-12T08:01:19.644Z,1.00
2022-10-12T08:03:48.047Z,1.00
2022-10-12T08:06:18.594Z,1.00
2022-10-12T08:08:46.688Z,99.90
2022-10-12T08:11:14.907Z,99.90
2022-10-12T08:13:44.323Z,99.90
2022-10-12T08:16:15.912Z,1.00
2022-10-12T08:18:44.427Z,99.90
2022-10-12T08:21:14.527Z,99.90
2022-10-12T08:23:44.392Z,1.00
2022-10-12T08:26:13.011Z,1.00
2022-10-12T08:28:41.415Z,1.00
2022-10-12T08:31:13.348Z,99.90
2022-10-12T08:33:41.403Z,99.90
2022-10-12T08:36:10.119Z,1.00
2022-10-12T08:38:39.370Z,1.00
2022-10-12T08:41:27.311Z,1.00
2022-10-12T08:44:35.029Z,1.00
2022-10-12T08:47:12.597Z,1.00
2022-10-12T08:49:45.144Z,1.00
2022-10-12T08:52:28.097Z,1.60
2022-10-12T08:55:01.307Z,99.90
2022-10-12T08:57:29.427Z,99.90
2022-10-12T08:59:57.459Z,99.90
2022-10-12T09:02:51.938Z,1.00
2022-10-12T09:05:28.586Z,99.90
2022-10-12T09:08:02.204Z,99.90
2022-10-12T09:10:42.581Z,1.00
2022-10-12T09:13:23.734Z,1.00
2022-10-12T09:15:55.845Z,1.00
2022-10-12T09:18:40.471Z,1.00
2022-10-12T09:21:11.553Z,1.00
2022-10-12T09:23:41.091Z,99.90
2022-10-12T09:26:16.735Z,99.90
2022-10-12T09:28:47.052Z,1.00
2022-10-12T09:31:31.356Z,99.90
2022-10-12T09:34:05.486Z,1.00
2022-10-12T09:36:37.372Z,1.00
2022-10-12T09:39:07.976Z,1.00
2022-10-12T09:41:39.858Z,99.90
2022-10-12T09:44:10.847Z,99.90
2022-10-12T09:46:43.093Z,99.90
2022-10-12T09:49:12.393Z,99.90
2022-10-12T09:51:40.670Z,24.10
2022-10-12T09:54:16.679Z,87.80
2022-10-12T09:56:49.901Z,1.00
2022-10-12T09:59:28.096Z,99.90
2022-10-12T10:02:04.899Z,99.90
2022-10-12T10:04:34.790Z,99.90
2022-10-12T10:07:19.542Z,99.90
2022-10-12T10:09:49.068Z,99.90
2022-10-12T10:12:24.627Z,99.90
2022-10-12T10:14:54.604Z,99.90
2022-10-12T10:17:27.537Z,98.50
2022-10-12T10:19:58.946Z,1.00
2022-10-12T10:22:27.529Z,1.00
2022-10-12T10:25:00.545Z,1.00
2022-10-12T10:27:32.392Z,99.90
2022-10-12T10:30:29.498Z,99.90
2022-10-12T10:33:12.842Z,99.90
2022-10-12T10:35:43.444Z,99.90
2022-10-12T10:38:16.657Z,99.90
2022-10-12T10:40:51.973Z,99.90
2022-10-12T10:43:25.940Z,99.90
2022-10-12T10:45:56.664Z,99.90
2022-10-12T10:48:29.132Z,99.90
2022-10-12T10:51:01.483Z,99.90
2022-10-12T10:53:33.282Z,99.90
2022-10-12T10:56:06.709Z,99.90
2022-10-12T10:58:38.287Z,99.90
2022-10-12T11:01:19.418Z,99.90
2022-10-12T11:03:59.481Z,99.90
2022-10-12T11:06:36.793Z,99.90
2022-10-12T11:09:08.479Z,99.90
2022-10-12T11:11:38.463Z,99.90
2022-10-12T11:14:14.854Z,99.90
2022-10-12T11:16:46.774Z,99.90
2022-10-12T11:19:30.759Z,99.90
2022-10-12T11:22:05.742Z,99.90
2022-10-12T11:24:39.772Z,99.90
2022-10-12T11:27:13.742Z,99.90
2022-10-12T11:29:42.352Z,99.90
2022-10-12T11:32:22.758Z,99.90
2022-10-12T11:34:54.661Z,99.90
2022-10-12T11:37:34.269Z,99.90
2022-10-12T11:40:03.810Z,97.30
2022-10-12T11:42:37.093Z,98.80
2022-10-12T11:45:18.994Z,99.00
2022-10-12T11:47:49.186Z,94.60
2022-10-12T11:50:28.954Z,74.60
2022-10-12T11:53:01.254Z,52.50
2022-10-12T11:55:45.162Z,29.60
2022-10-12T11:58:18.966Z,31.50
2022-10-12T12:01:04.173Z,28.10
2022-10-12T12:03:39.757Z,20.30
2022-10-12T12:06:43.222Z,24.30
2022-10-12T12:09:21.956Z,6.30
2022-10-12T12:11:52.298Z,1.00
2022-10-12T12:14:47.898Z,1.00
2022-10-12T12:17:28.126Z,1.00
2022-10-12T12:19:59.644Z,1.00
2022-10-12T12:22:48.531Z,1.00
2022-10-12T12:25:29.347Z,1.00
2022-10-12T12:28:00.468Z,1.00
2022-10-12T12:30:38.419Z,1.00
2022-10-12T12:33:24.999Z,1.00
2022-10-12T12:35:56.168Z,1.00
2022-10-12T12:38:27.649Z,1.00
2022-10-12T12:41:08.758Z,1.00
2022-10-12T12:44:04.332Z,1.00
2022-10-12T12:47:32.531Z,1.00
2022-10-12T12:49:57.312Z,1.00
2022-10-12T12:52:29.325Z,1.00
2022-10-12T12:55:37.247Z,1.00
2022-10-12T12:58:21.220Z,1.00
2022-10-12T13:01:07.255Z,1.00
2022-10-12T13:03:59.434Z,1.00
2022-10-12T13:06:59.520Z,1.00
2022-10-12T13:10:00.520Z,1.00
2022-10-12T13:12:50.816Z,1.00
2022-10-12T13:15:35.284Z,1.00
2022-10-12T13:18:45.344Z,1.00
2022-10-12T13:21:16.653Z,1.00
2022-10-12T13:23:47.108Z,1.00
2022-10-12T13:26:19.875Z,1.00
2022-10-12T13:28:49.805Z,1.00
2022-10-12T13:31:24.091Z,1.00
2022-10-12T13:34:00.504Z,1.00
2022-10-12T13:36:31.735Z,1.00
2022-10-12T13:39:01.606Z,1.00
2022-10-12T13:41:31.288Z,1.00
2022-10-12T13:44:01.108Z,1.00
2022-10-12T13:46:40.761Z,1.00
2022-10-12T13:49:15.822Z,1.00
2022-10-12T13:51:45.126Z,1.00
2022-10-12T13:54:18.270Z,1.00
2022-10-12T13:56:48.822Z,1.00
2022-10-12T13:59:20.715Z,1.00
2022-10-12T14:01:55.764Z,1.00
2022-10-12T14:04:27.801Z,1.00
2022-10-12T14:07:00.657Z,1.00
2022-10-12T14:09:29.469Z,1.00
2022-10-12T14:11:58.047Z,1.00
2022-10-12T14:14:32.748Z,1.00
2022-10-12T14:17:02.717Z,1.00
2022-10-12T14:19:42.690Z,1.00
2022-10-12T14:22:11.273Z,1.00
2022-10-12T14:24:40.302Z,1.00
2022-10-12T14:27:09.818Z,1.00
2022-10-12T14:29:44.634Z,1.00
2022-10-12T14:32:42.406Z,1.00
2022-10-12T14:35:26.036Z,1.00
2022-10-12T14:37:55.923Z,1.00
2022-10-12T14:40:37.164Z,1.00
2022-10-12T14:43:09.424Z,1.00
2022-10-12T14:45:37.616Z,1.00
2022-10-12T14:48:15.052Z,1.00
2022-10-12T14:50:44.790Z,1.00
2022-10-12T14:53:14.728Z,1.00
2022-10-12T14:55:43.743Z,1.00
2022-10-12T14:58:16.208Z,1.00
2022-10-12T15:00:44.999Z,1.00
2022-10-12T15:03:14.414Z,1.00
2022-10-12T15:05:42.447Z,4.20
2022-10-12T15:08:10.676Z,15.70
2022-10-12T15:10:38.991Z,28.70
2022-10-12T15:13:06.966Z,46.80
2022-10-12T15:15:40.667Z,66.50
2022-10-12T15:18:11.023Z,81.90
2022-10-12T15:20:44.192Z,93.00
2022-10-12T15:23:15.096Z,98.60
2022-10-12T15:25:46.063Z,99.90
2022-10-12T15:28:14.360Z,99.90
2022-10-12T15:31:11.838Z,99.90
2022-10-12T15:33:35.549Z,99.90
2022-10-12T15:36:05.028Z,99.90
2022-10-12T15:38:33.145Z,99.90
2022-10-12T15:41:01.124Z,99.90
2022-10-12T15:43:29.652Z,99.90
2022-10-12T15:45:59.311Z,99.90
2022-10-12T15:48:28.353Z,99.90
2022-10-12T15:50:56.420Z,99.90
2022-10-12T15:53:27.248Z,99.90
2022-10-12T15:55:56.592Z,99.90
2022-10-12T15:58:25.609Z,99.90
2022-10-12T16:00:53.855Z,1.00
2022-10-12T16:03:25.940Z,1.00
2022-10-12T16:05:55.218Z,1.00
2022-10-12T16:08:23.163Z,1.00
2022-10-12T16:10:52.826Z,1.00
2022-10-12T16:13:20.828Z,1.00
2022-10-12T16:15:49.073Z,37.90
2022-10-12T16:18:17.704Z,99.90
2022-10-12T16:20:53.452Z,99.90
2022-10-12T16:23:24.766Z,99.90
2022-10-12T16:25:54.757Z,99.90
2022-10-12T16:28:23.864Z,1.00
2022-10-12T16:30:52.546Z,1.00
2022-10-12T16:33:20.691Z,1.00
2022-10-12T16:35:48.737Z,13.70
2022-10-12T16:38:19.710Z,99.90
2022-10-12T16:40:49.209Z,99.90
2022-10-12T16:43:19.539Z,1.00
2022-10-12T16:45:56.102Z,26.70
2022-10-12T16:48:26.613Z,27.90
2022-10-12T16:50:54.563Z,99.90
2022-10-12T16:53:22.606Z,99.90
2022-10-12T16:55:50.825Z,99.90
2022-10-12T16:58:20.274Z,99.90
2022-10-12T17:00:48.425Z,1.00
2022-10-12T17:03:16.505Z,99.90
2022-10-12T17:05:44.553Z,99.90
2022-10-12T17:08:15.813Z,99.90
2022-10-12T17:10:44.963Z,1.00
2022-10-12T17:13:14.462Z,99.90
2022-10-12T17:15:44.145Z,1.00
2022-10-12T17:18:12.535Z,1.00
2022-10-12T17:20:40.550Z,99.90
2022-10-12T17:23:11.085Z,99.90
2022-10-12T17:25:39.128Z,99.90
2022-10-12T17:28:07.240Z,1.00
2022-10-12T17:30:38.364Z,1.00
2022-10-12T17:33:07.703Z,1.00
2022-10-12T17:35:39.832Z,6.80
2022-10-12T17:38:07.816Z,28.00
2022-10-12T17:40:35.882Z,99.90
2022-10-12T17:43:03.862Z,99.90
2022-10-12T17:45:34.255Z,1.00
2022-10-12T17:48:02.224Z,99.90
2022-10-12T17:50:31.553Z,1.00
2022-10-12T17:52:59.562Z,1.00
2022-10-12T17:55:47.707Z,37.60
2022-10-12T17:58:15.375Z,1.00
2022-10-12T18:00:43.449Z,99.90
2022-10-12T18:03:12.363Z,1.00
2022-10-12T18:05:41.751Z,1.00
2022-10-12T18:08:12.073Z,99.90
2022-10-12T18:10:41.393Z,99.90
2022-10-12T18:13:09.772Z,1.00
2022-10-12T18:15:43.136Z,1.00
2022-10-12T18:18:15.157Z,99.90
2022-10-12T18:20:45.037Z,99.90
2022-10-12T18:23:13.184Z,1.00
2022-10-12T18:25:43.140Z,16.00
2022-10-12T18:28:12.691Z,1.00
2022-10-12T18:30:47.765Z,99.90
2022-10-12T18:33:16.371Z,99.90
2022-10-12T18:35:45.720Z,1.00
2022-10-12T18:38:13.671Z,1.00
2022-10-12T18:40:42.512Z,1.00
2022-10-12T18:43:11.202Z,1.00
2022-10-12T18:45:42.859Z,1.00
2022-10-12T18:48:10.900Z,99.90
2022-10-12T18:50:41.216Z,99.90
2022-10-12T18:53:10.627Z,1.00
2022-10-12T18:55:38.972Z,99.90
2022-10-12T18:58:07.453Z,99.90
2022-10-12T19:00:35.564Z,99.90
2022-10-12T19:03:03.799Z,99.90
2022-10-12T19:05:32.006Z,99.90
2022-10-12T19:07:59.955Z,99.90
2022-10-12T19:10:29.441Z,99.90
2022-10-12T19:12:58.667Z,99.90
2022-10-12T19:15:28.534Z,1.00
2022-10-12T19:17:58.746Z,99.90
2022-10-12T19:20:26.848Z,99.90
2022-10-12T19:22:54.812Z,99.90
2022-10-12T19:25:25.349Z,99.90
2022-10-12T19:27:54.675Z,99.90
2022-10-12T19:30:22.595Z,99.90
2022-10-12T19:32:50.604Z,99.90
2022-10-12T19:35:18.649Z,1.00
2022-10-12T19:37:46.692Z,24.00
2022-10-12T19:40:14.958Z,1.00
2022-10-12T19:42:42.968Z,14.90
2022-10-12T19:45:12.567Z,61.20
2022-10-12T19:47:40.534Z,99.90
2022-10-12T19:50:09.200Z,99.90
2022-10-12T19:52:37.152Z,99.90
2022-10-12T19:55:05.621Z,99.90
2022-10-12T19:57:37.961Z,99.90
2022-10-12T20:00:08.641Z,1.00
2022-10-12T20:02:42.926Z,1.00
2022-10-12T20:05:11.084Z,1.00
2022-10-12T20:07:39.692Z,1.00
2022-10-12T20:10:09.001Z,1.00
2022-10-12T20:12:37.114Z,1.00
2022-10-12T20:15:05.677Z,1.00
2022-10-12T20:17:33.683Z,1.00
2022-10-12T20:20:03.017Z,1.00
2022-10-12T20:22:30.957Z,1.00
2022-10-12T20:24:58.837Z,1.00
2022-10-12T20:27:27.159Z,1.00
2022-10-12T20:29:55.069Z,1.00
2022-10-12T20:32:23.007Z,1.00
2022-10-12T20:34:52.582Z,1.00
2022-10-12T20:37:22.498Z,1.00
2022-10-12T20:39:52.463Z,1.00
2022-10-12T20:42:22.056Z,1.00
2022-10-12T20:44:53.311Z,1.00
2022-10-12T20:47:21.264Z,1.00
2022-10-12T20:49:49.265Z,1.00
2022-10-12T20:52:17.564Z,1.00
2022-10-12T20:54:47.149Z,3.30
2022-10-12T20:57:15.154Z,9.00
2022-10-12T20:59:45.559Z,1.00
2022-10-12T21:02:13.487Z,1.00
2022-10-12T21:04:41.448Z,1.00
2022-10-12T21:07:09.690Z,3.10
2022-10-12T21:09:37.665Z,7.90
2022-10-12T21:12:07.108Z,1.00
2022-10-12T21:14:35.364Z,17.10
2022-10-12T21:17:05.764Z,1.00
2022-10-12T21:19:33.765Z,1.00
2022-10-12T21:22:01.685Z,15.70
2022-10-12T21:24:29.701Z,1.00
2022-10-12T21:26:57.647Z,1.00
2022-10-12T21:29:26.900Z,1.00
2022-10-12T21:31:54.875Z,18.90
2022-10-12T21:34:23.684Z,8.20
2022-10-12T21:36:51.659Z,29.50
2022-10-12T21:39:20.569Z,90.40
2022-10-12T21:41:48.548Z,95.30
2022-10-12T21:44:16.466Z,99.90
2022-10-12T21:46:45.738Z,99.90
2022-10-12T21:49:13.667Z,99.90
2022-10-12T21:51:41.603Z,99.90
2022-10-12T21:54:09.632Z,99.90
2022-10-12T21:56:38.464Z,99.90
2022-10-12T21:59:07.199Z,99.90
2022-10-12T22:01:37.164Z,99.90
2022-10-12T22:04:08.869Z,99.90
2022-10-12T22:06:36.839Z,99.90
2022-10-12T22:09:09.177Z,99.90
2022-10-12T22:11:38.974Z,99.90
2022-10-12T22:14:13.559Z,99.90
2022-10-12T22:16:43.171Z,99.90
2022-10-12T22:19:15.356Z,99.90
2022-10-12T22:21:43.381Z,99.90
2022-10-12T22:24:11.352Z,99.90
2022-10-12T22:26:39.463Z,99.90
2022-10-12T22:29:08.664Z,99.90
2022-10-12T22:31:37.377Z,99.90
2022-10-12T22:34:05.453Z,95.40
2022-10-12T22:36:37.822Z,96.60
2022-10-12T22:39:06.708Z,99.70
2022-10-12T22:41:34.658Z,99.90
2022-10-12T22:44:02.656Z,96.00
2022-10-12T22:46:31.027Z,99.90
2022-10-12T22:48:59.031Z,99.90
2022-10-12T22:51:30.405Z,99.90
2022-10-12T22:54:00.329Z,99.90
2022-10-12T22:56:28.976Z,99.90
2022-10-12T22:58:58.235Z,99.90
2022-10-12T23:01:29.217Z,99.90
2022-10-12T23:03:57.453Z,99.90
2022-10-12T23:06:26.458Z,99.90
2022-10-12T23:08:54.659Z,99.90
2022-10-12T23:11:25.711Z,99.90
2022-10-12T23:13:54.121Z,99.90
2022-10-12T23:16:23.775Z,99.90
2022-10-12T23:18:58.197Z,99.90
2022-10-12T23:21:28.381Z,99.90
2022-10-12T23:23:56.897Z,99.90
2022-10-12T23:26:27.464Z,99.90
2022-10-12T23:28:56.219Z,99.90
2022-10-12T23:31:26.291Z,99.90
2022-10-12T23:33:57.700Z,99.90
2022-10-12T23:36:26.177Z,99.90
2022-10-12T23:38:54.411Z,99.90
2022-10-12T23:41:22.507Z,99.90
2022-10-12T23:43:51.709Z,99.90
2022-10-12T23:46:19.675Z,99.90
2022-10-12T23:48:47.608Z,99.90
2022-10-12T23:51:17.702Z,99.90
2022-10-12T23:53:45.994Z,99.90
2022-10-12T23:56:14.321Z,99.90
2022-10-12T23:58:44.568Z,99.90
